IST,Max TemperatureF,Mean TemperatureF,Min TemperatureF,Max Dew PointF,MeanDew PointF,Min DewpointF,Max Humidity, Mean Humidity, Min Humidity, Max Sea Level PressureIn, Mean Sea Level PressureIn, Min Sea Level PressureIn, Max VisibilityMiles, Mean VisibilityMiles, Min VisibilityMiles, Max Wind SpeedMPH, Mean Wind SpeedMPH, Max Gust SpeedMPH,PrecipitationIn, CloudCover, Events, WindDirDegrees
2013-3-1,50,44,37,43,36,32,100,73,58,30.54,30.51,30.48,6,6,4,10,4,,0.00,4,,128
2013-3-2,48,42,37,39,37,34,87,75,66,30.42,30.34,30.30,6,6,6,8,4,,0.00,6,,249
2013-3-3,46,44,41,41,38,36,87,80,66,30.21,30.15,30.09,6,6,4,12,4,,0.00,5,,123
2013-3-4,42,40,37,37,35,34,87,78,70,29.95,29.85,29.74,6,6,5,12,6,,0.00,4,,136
2013-3-5,46,38,30,39,35,28,100,84,71,29.68,29.65,29.59,4,3,2,14,4,,0.00,2,Fog,31
2013-3-6,44,42,41,41,38,36,93,83,76,29.59,29.56,29.53,6,2,2,16,10,,0.00,4,Rain,73
2013-3-7,48,45,42,45,41,39,93,87,81,29.47,29.42,29.39,6,3,2,24,17,36,0.00,6,Rain,87
2013-3-8,44,42,41,41,40,39,93,88,81,29.56,29.46,29.39,6,3,2,24,21,36,0.00,6,Rain,103
2013-3-9,41,39,37,37,36,36,93,90,87,29.77,29.70,29.62,6,6,6,20,15,32,0.00,6,Rain,72
2013-3-10,41,37,32,28,25,19,75,61,53,30.04,29.92,29.83,6,6,6,25,18,37,0.00,2,,71
2013-3-11,35,32,30,23,20,14,69,58,48,30.15,30.10,30.06,6,6,6,24,19,33,0.00,2,Rain-Snow,42
2013-3-12,42,34,26,32,28,21,81,69,53,30.09,30.03,29.98,6,6,6,13,5,,0.00,4,Rain,323
2013-3-13,46,40,35,32,29,25,87,65,46,30.04,29.98,29.95,6,6,6,18,10,,0.00,2,Rain,337
2013-3-14,46,39,32,39,36,28,87,81,71,30.01,29.87,29.71,6,6,4,15,10,24,0.00,4,Rain,217
2013-3-15,48,42,37,39,34,30,87,74,53,29.42,29.40,29.36,6,6,6,17,11,,0.00,3,Rain,223
2013-3-16,39,36,32,36,34,30,100,92,87,29.30,29.27,29.27,6,6,6,12,5,,0.00,5,Rain-Snow,322
2013-3-17,41,38,35,36,34,32,100,86,76,29.18,29.15,29.12,6,6,6,12,5,,0.00,4,Rain,47
2013-3-18,41,39,37,37,34,30,93,82,70,29.47,29.36,29.24,6,6,4,21,12,28,0.00,6,Rain,50
2013-3-19,39,37,35,36,34,32,93,86,81,29.53,29.49,29.47,6,6,6,23,18,,0.00,6,Rain,39
2013-3-20,41,39,37,36,34,32,87,78,70,29.92,29.80,29.65,6,6,6,15,11,,0.00,6,Rain,99
2013-3-21,39,38,35,32,29,28,87,70,65,29.95,29.88,29.77,6,6,6,29,19,46,0.00,4,Rain-Snow,101
2013-3-22,35,34,33,34,32,32,93,92,87,29.74,29.68,29.65,4,2,1,36,28,52,0.00,6,Rain-Snow,109
2013-3-23,35,34,33,32,30,28,93,81,75,30.01,29.94,29.86,6,6,5,23,19,34,0.00,6,Rain-Snow,97
2013-3-24,39,37,35,27,25,25,70,63,56,30.15,30.08,30.04,6,6,6,24,18,33,0.00,5,,79
2013-3-25,37,35,33,27,26,25,75,67,60,30.18,30.17,30.15,6,6,6,22,18,,0.00,6,Snow,70
2013-3-26,39,36,33,27,25,21,75,64,49,30.18,30.12,30.09,6,6,6,20,14,26,0.00,4,Snow,66
2013-3-27,42,38,33,32,26,23,87,64,52,30.06,30.05,30.04,6,6,6,20,14,,0.00,3,Rain-Snow,66
2013-3-28,39,36,32,28,25,23,75,62,52,30.04,30.02,30.01,6,6,6,15,10,,0.00,4,Snow,87
2013-3-29,41,38,35,28,25,21,70,59,49,29.95,29.91,29.89,6,6,6,14,9,,0.00,5,,99
2013-3-30,39,37,35,27,25,23,70,61,52,29.98,29.97,29.95,6,6,6,12,8,,0.00,5,,104
2013-3-31,41,39,37,25,24,21,60,55,49,29.95,29.93,29.89,6,6,6,17,12,30,0.00,3,,126
2013-4-1,,,,,,,,,,,,,,,,,,,,,,